Time;durP1;ratioP1;P1;durP2;ratioP2;P2;SDS_P1;SDS_P2;PMS_P1;PMS_P2;Temp;Humidity;BMP_temperature;BMP_pressure;BME280_temperature;BME280_humidity;BME280_pressure;Samples;Min_cycle;Max_cycle;Signal;HPM_P1;HPM_P2
2021/08/27 00:01:05;;;;;;;2.30;1.25;;;15.60;66.10;;;;;;5053840;28;20121;-78
2021/08/27 00:03:31;;;;;;;3.70;1.52;;;15.60;66.30;;;;;;5077826;28;20027;-78
2021/08/27 00:05:56;;;;;;;1.83;1.20;;;15.50;66.40;;;;;;5067340;28;20028;-78
2021/08/27 00:08:25;;;;;;;2.42;1.35;;;15.50;66.60;;;;;;5053353;28;20495;-78
2021/08/27 00:10:50;;;;;;;1.95;1.10;;;15.40;66.60;;;;;;5053204;28;20052;-78
2021/08/27 00:13:16;;;;;;;2.85;1.30;;;15.40;66.50;;;;;;5037602;28;20025;-78
2021/08/27 00:15:42;;;;;;;2.90;1.60;;;15.50;66.70;;;;;;5037564;28;20033;-78
2021/08/27 00:18:07;;;;;;;3.38;1.70;;;15.40;66.90;;;;;;5037579;28;20036;-78
2021/08/27 00:20:33;;;;;;;3.40;1.42;;;15.40;66.70;;;;;;5037418;28;20117;-78
2021/08/27 00:22:59;;;;;;;1.60;1.40;;;15.40;67.10;;;;;;5037726;28;20033;-78
2021/08/27 00:25:32;;;;;;;1.80;1.27;;;15.30;67.10;;;;;;5037704;28;20449;-78
2021/08/27 00:27:58;;;;;;;1.88;1.30;;;15.30;67.00;;;;;;5078168;28;20025;-80
2021/08/27 00:30:23;;;;;;;2.85;1.80;;;15.30;67.10;;;;;;5057573;28;20083;-79
2021/08/27 00:32:49;;;;;;;1.90;1.13;;;15.30;66.90;;;;;;5057492;28;20820;-79
2021/08/27 00:35:15;;;;;;;2.78;1.45;;;15.30;67.20;;;;;;5051145;28;20398;-78
2021/08/27 00:37:41;;;;;;;1.92;1.08;;;15.30;67.40;;;;;;5037417;28;20467;-79
2021/08/27 00:40:07;;;;;;;1.63;1.50;;;15.30;67.50;;;;;;5040824;28;20045;-80
2021/08/27 00:42:36;;;;;;;3.05;1.70;;;15.30;67.50;;;;;;5049976;28;20029;-80
2021/08/27 00:45:02;;;;;;;1.80;1.33;;;15.20;67.60;;;;;;5037150;28;20021;-79
2021/08/27 00:47:27;;;;;;;2.65;1.30;;;15.20;67.70;;;;;;5037338;28;20488;-80
2021/08/27 00:49:53;;;;;;;2.08;1.30;;;15.20;67.90;;;;;;5039353;28;20403;-80
2021/08/27 00:52:19;;;;;;;1.67;1.25;;;15.20;67.70;;;;;;5056909;28;20021;-80
2021/08/27 00:54:48;;;;;;;2.08;1.25;;;15.20;67.70;;;;;;5055598;28;20029;-80
2021/08/27 00:57:14;;;;;;;3.67;1.35;;;15.20;68.00;;;;;;5037398;28;20060;-80
2021/08/27 00:59:42;;;;;;;3.65;1.75;;;15.20;67.90;;;;;;5042389;28;20033;-80
2021/08/27 01:02:08;;;;;;;2.53;1.30;;;15.20;67.80;;;;;;5041798;28;20083;-80
2021/08/27 01:04:35;;;;;;;1.63;1.20;;;15.10;68.10;;;;;;5036860;28;20025;-80
2021/08/27 01:07:23;;;;;;;1.80;1.40;;;15.10;68.10;;;;;;5036904;28;20017;-80
2021/08/27 01:10:09;;;;;;;1.75;1.15;;;15.10;68.10;;;;;;5036726;28;20377;-80
2021/08/27 01:12:50;;;;;;;2.53;1.30;;;15.10;68.20;;;;;;5047688;28;20534;-80
2021/08/27 01:15:24;;;;;;;2.22;1.30;;;15.00;68.50;;;;;;5036993;28;20029;-80
2021/08/27 01:17:58;;;;;;;4.65;1.50;;;15.00;68.40;;;;;;5048196;28;20030;-80
2021/08/27 01:21:01;;;;;;;1.75;1.13;;;14.90;68.80;;;;;;5036538;28;20038;-79
2021/08/27 01:23:55;;;;;;;2.47;1.50;;;14.80;68.90;;;;;;5036461;28;20028;-80
2021/08/27 01:26:29;;;;;;;1.60;1.35;;;14.80;69.00;;;;;;5038426;28;20021;-80
2021/08/27 01:28:56;;;;;;;2.17;1.25;;;14.70;69.70;;;;;;5036467;28;20427;-80
2021/08/27 01:31:33;;;;;;;1.60;1.23;;;14.60;69.70;;;;;;5036325;28;20038;-79
2021/08/27 01:34:12;;;;;;;2.67;1.40;;;14.60;69.40;;;;;;5036151;28;20496;-80
2021/08/27 01:36:39;;;;;;;2.72;1.52;;;14.70;69.40;;;;;;5049911;28;20040;-80
2021/08/27 01:39:08;;;;;;;2.08;1.38;;;14.60;69.50;;;;;;5036279;28;20065;-80
2021/08/27 01:41:35;;;;;;;2.63;1.20;;;14.60;69.80;;;;;;5038301;28;20050;-79
2021/08/27 01:44:04;;;;;;;2.53;1.35;;;14.60;69.90;;;;;;5036049;28;20037;-80
2021/08/27 01:46:36;;;;;;;2.70;1.30;;;14.70;69.80;;;;;;5035892;28;20029;-80
2021/08/27 01:49:07;;;;;;;2.65;1.30;;;14.70;69.90;;;;;;5051112;28;20340;-80
2021/08/27 01:51:35;;;;;;;2.00;1.50;;;14.70;69.80;;;;;;5035965;28;20180;-79
2021/08/27 01:54:02;;;;;;;3.65;1.55;;;14.60;69.80;;;;;;5035741;28;20506;-80
2021/08/27 01:56:39;;;;;;;2.70;1.40;;;14.60;69.70;;;;;;5051187;28;20025;-79
2021/08/27 01:59:07;;;;;;;2.17;1.15;;;14.60;69.90;;;;;;5051307;28;20037;-78
2021/08/27 02:01:34;;;;;;;3.28;1.58;;;14.60;70.00;;;;;;5035462;28;20064;-80
2021/08/27 02:04:05;;;;;;;2.40;1.20;;;14.50;70.10;;;;;;5035652;28;20053;-79
2021/08/27 02:06:31;;;;;;;3.25;1.30;;;14.60;70.20;;;;;;5035571;28;20082;-80
2021/08/27 02:08:58;;;;;;;2.92;1.40;;;14.60;70.00;;;;;;5035792;28;20025;-80
2021/08/27 02:11:24;;;;;;;2.92;1.45;;;14.60;70.20;;;;;;5035483;28;20029;-80
2021/08/27 02:13:55;;;;;;;1.95;1.25;;;14.50;70.20;;;;;;5035485;28;20032;-79
2021/08/27 02:16:20;;;;;;;1.85;1.27;;;14.40;70.50;;;;;;5052390;28;20029;-79
2021/08/27 02:18:46;;;;;;;2.47;1.60;;;14.50;70.80;;;;;;5048115;28;20033;-80
2021/08/27 02:21:13;;;;;;;3.90;1.63;;;14.50;70.80;;;;;;5034033;28;20036;-80
2021/08/27 02:23:41;;;;;;;3.55;1.60;;;14.40;70.90;;;;;;5035408;28;20108;-79
2021/08/27 02:26:08;;;;;;;1.75;1.35;;;14.40;70.80;;;;;;5035422;28;20560;-80
2021/08/27 02:28:35;;;;;;;2.50;1.67;;;14.40;71.00;;;;;;5035418;28;20045;-80
2021/08/27 02:31:01;;;;;;;3.08;1.27;;;14.40;71.00;;;;;;5035185;28;20029;-79
2021/08/27 02:33:30;;;;;;;2.85;1.58;;;14.40;71.00;;;;;;5035153;28;20052;-80
2021/08/27 02:35:59;;;;;;;1.95;1.45;;;14.40;71.00;;;;;;5035121;28;20108;-80
2021/08/27 02:38:27;;;;;;;2.08;1.45;;;14.30;70.90;;;;;;5035093;28;20484;-80
2021/08/27 02:40:53;;;;;;;3.80;1.48;;;14.40;71.10;;;;;;5051597;28;20048;-79
2021/08/27 02:43:19;;;;;;;2.80;1.80;;;14.30;71.10;;;;;;5063170;28;20032;-79
2021/08/27 02:45:45;;;;;;;2.13;1.42;;;14.30;71.50;;;;;;5035243;28;20032;-79
2021/08/27 02:48:12;;;;;;;4.38;1.73;;;14.30;71.30;;;;;;5034908;28;20044;-80
2021/08/27 02:50:44;;;;;;;1.50;1.30;;;14.30;71.50;;;;;;5034917;28;20087;-80
2021/08/27 02:53:29;;;;;;;;;;;;;;;;;;;;;
2021/08/27 02:56:02;;;;;;;1.95;1.38;;;14.30;71.20;;;;;;5035054;28;20381;-80
2021/08/27 02:58:32;;;;;;;2.75;1.38;;;14.30;71.40;;;;;;5035088;28;20052;-79
2021/08/27 03:01:05;;;;;;;2.42;1.48;;;14.30;71.60;;;;;;5034991;28;20033;-80
2021/08/27 03:03:35;;;;;;;2.65;1.65;;;14.30;71.90;;;;;;5052714;28;20087;-80
2021/08/27 03:06:25;;;;;;;2.97;1.42;;;14.30;71.60;;;;;;5053551;28;20410;-80
2021/08/27 03:08:57;;;;;;;;;;;14.30;71.80;;;;;;5055488;28;20483;-80
2021/08/27 03:11:28;;;;;;;2.60;1.48;;;14.30;72.10;;;;;;5040052;28;20379;-80
2021/08/27 03:14:02;;;;;;;3.08;1.80;;;14.30;71.90;;;;;;5035145;28;20483;-80
2021/08/27 03:16:39;;;;;;;3.28;1.30;;;14.30;71.80;;;;;;5035087;28;20101;-80
2021/08/27 03:19:10;;;;;;;3.92;1.70;;;14.30;72.00;;;;;;5034669;28;20034;-79
2021/08/27 03:21:39;;;;;;;2.13;1.40;;;14.30;71.90;;;;;;5050102;28;20434;-79
2021/08/27 03:24:29;;;;;;;2.35;1.58;;;14.30;71.80;;;;;;5034802;28;20022;-80
2021/08/27 03:27:00;;;;;;;1.75;1.20;;;14.30;71.90;;;;;;5034539;28;20038;-80
2021/08/27 03:29:30;;;;;;;2.22;1.50;;;14.20;72.20;;;;;;5034615;28;20044;-80
2021/08/27 03:31:57;;;;;;;2.73;1.40;;;14.20;72.10;;;;;;5033435;28;20507;-80
2021/08/27 03:34:24;;;;;;;2.45;1.60;;;14.20;72.20;;;;;;5033849;28;20296;-79
2021/08/27 03:36:51;;;;;;;2.55;1.85;;;14.10;72.10;;;;;;5049097;28;20060;-80
2021/08/27 03:39:21;;;;;;;2.63;1.40;;;14.10;72.30;;;;;;5049863;28;20029;-79
2021/08/27 03:41:47;;;;;;;3.80;1.70;;;14.00;72.60;;;;;;5068810;28;20067;-80
2021/08/27 03:44:16;;;;;;;2.28;1.55;;;14.10;72.70;;;;;;5072428;28;20017;-79
2021/08/27 03:46:42;;;;;;;2.90;1.95;;;14.00;72.80;;;;;;5034729;28;20028;-79
2021/08/27 03:49:08;;;;;;;2.47;1.63;;;14.00;73.00;;;;;;5036988;28;20029;-80
2021/08/27 03:51:34;;;;;;;2.92;1.63;;;14.00;73.00;;;;;;5044506;28;20044;-80
2021/08/27 03:54:00;;;;;;;3.35;1.70;;;13.90;73.20;;;;;;5058413;28;20104;-79
2021/08/27 03:56:29;;;;;;;2.78;1.73;;;13.90;73.30;;;;;;5058028;28;20061;-78
2021/08/27 03:58:55;;;;;;;2.72;1.35;;;13.90;73.30;;;;;;5058004;28;20063;-79
2021/08/27 04:01:22;;;;;;;1.90;1.50;;;13.90;73.40;;;;;;5040467;28;20065;-80
2021/08/27 04:03:48;;;;;;;2.55;1.73;;;13.90;73.40;;;;;;5037915;28;20048;-79
2021/08/27 04:06:14;;;;;;;3.17;1.63;;;13.90;73.60;;;;;;5038172;28;20488;-79
2021/08/27 04:08:42;;;;;;;2.65;1.75;;;14.00;73.60;;;;;;5037962;28;20087;-79
2021/08/27 04:11:10;;;;;;;2.17;1.52;;;13.90;73.70;;;;;;5037739;28;20037;-80
2021/08/27 04:13:37;;;;;;;3.22;2.00;;;13.90;73.90;;;;;;5037889;28;20025;-80
2021/08/27 04:16:04;;;;;;;4.28;1.98;;;13.90;74.00;;;;;;5036307;28;20472;-80
2021/08/27 04:18:30;;;;;;;3.70;2.25;;;13.90;74.00;;;;;;5037692;28;20434;-79
2021/08/27 04:20:56;;;;;;;3.80;1.88;;;13.90;74.00;;;;;;5037689;28;20033;-80
2021/08/27 04:23:24;;;;;;;3.53;1.90;;;13.90;74.40;;;;;;5037484;28;20546;-80
2021/08/27 04:25:49;;;;;;;2.88;1.88;;;13.90;74.30;;;;;;5053006;28;20140;-80
2021/08/27 04:28:15;;;;;;;2.25;1.70;;;13.80;74.30;;;;;;5037514;28;20068;-79
2021/08/27 04:30:43;;;;;;;2.15;1.65;;;13.90;74.50;;;;;;5037902;28;20041;-77
2021/08/27 04:33:09;;;;;;;1.85;1.70;;;13.80;74.40;;;;;;5037639;28;20434;-80
2021/08/27 04:35:35;;;;;;;1.60;1.50;;;13.90;74.30;;;;;;5037296;28;20076;-79
2021/08/27 04:38:01;;;;;;;3.67;1.63;;;13.90;74.30;;;;;;5037480;28;20057;-79
2021/08/27 04:40:27;;;;;;;3.33;1.50;;;13.90;74.20;;;;;;5046346;28;20040;-79
2021/08/27 04:42:52;;;;;;;2.40;1.67;;;13.90;74.60;;;;;;5060397;28;20033;-79
2021/08/27 04:45:18;;;;;;;1.80;1.52;;;13.90;74.70;;;;;;5035907;28;20032;-79
2021/08/27 04:47:46;;;;;;;1.80;1.40;;;13.90;74.70;;;;;;5069066;28;20021;-80
2021/08/27 04:50:13;;;;;;;1.75;1.52;;;13.90;74.70;;;;;;5037197;28;20040;-79
2021/08/27 04:52:39;;;;;;;3.05;1.85;;;13.90;74.40;;;;;;5051449;28;20049;-79
2021/08/27 04:55:05;;;;;;;2.65;1.45;;;13.90;74.80;;;;;;5037071;28;20091;-79
2021/08/27 04:57:31;;;;;;;2.80;1.55;;;13.80;75.20;;;;;;5036969;28;20096;-79
2021/08/27 04:59:57;;;;;;;2.45;1.70;;;13.80;75.30;;;;;;5036986;28;20056;-79
2021/08/27 05:02:23;;;;;;;3.30;1.77;;;13.80;75.50;;;;;;5036832;28;20101;-79
2021/08/27 05:04:51;;;;;;;3.90;2.00;;;13.80;75.20;;;;;;5050911;28;20025;-79
2021/08/27 05:07:17;;;;;;;3.13;1.60;;;13.80;75.40;;;;;;5036866;28;20510;-79
2021/08/27 05:09:43;;;;;;;3.00;1.63;;;13.80;75.50;;;;;;5036905;28;20025;-79
2021/08/27 05:12:08;;;;;;;2.15;1.77;;;13.80;75.80;;;;;;5036841;28;20030;-79
2021/08/27 05:14:34;;;;;;;3.65;1.65;;;13.80;75.70;;;;;;5036553;28;20556;-79
2021/08/27 05:17:00;;;;;;;2.22;1.83;;;13.90;75.20;;;;;;5036555;28;20095;-79
2021/08/27 05:19:25;;;;;;;3.90;1.80;;;14.00;75.00;;;;;;5036649;28;20124;-79
2021/08/27 05:21:51;;;;;;;2.60;2.00;;;14.10;75.00;;;;;;5036461;28;20400;-80
2021/08/27 05:24:17;;;;;;;2.10;1.60;;;14.00;75.00;;;;;;5035263;28;20037;-79
2021/08/27 05:26:42;;;;;;;2.10;1.80;;;14.20;74.90;;;;;;5036787;28;20471;-79
2021/08/27 05:29:08;;;;;;;2.25;1.77;;;14.30;74.40;;;;;;5036747;28;20025;-79
2021/08/27 05:31:34;;;;;;;2.00;1.35;;;14.30;74.60;;;;;;5035179;28;20022;-79
2021/08/27 05:34:01;;;;;;;2.63;1.67;;;14.30;74.50;;;;;;5035164;28;20036;-79
2021/08/27 05:36:27;;;;;;;2.40;1.33;;;14.40;74.30;;;;;;5052415;28;20107;-79
2021/08/27 05:38:53;;;;;;;2.78;1.27;;;14.40;73.90;;;;;;5054606;28;20037;-80
2021/08/27 05:41:19;;;;;;;1.80;1.40;;;14.50;73.90;;;;;;5067654;28;20037;-79
2021/08/27 05:43:45;;;;;;;3.55;1.52;;;14.60;73.70;;;;;;5066574;28;20057;-79
2021/08/27 05:46:11;;;;;;;2.92;1.83;;;14.60;73.70;;;;;;5056007;28;20502;-79
2021/08/27 05:48:37;;;;;;;2.67;1.73;;;14.70;73.30;;;;;;5050248;28;20033;-80
2021/08/27 05:51:03;;;;;;;2.35;1.50;;;14.70;73.70;;;;;;5035875;28;20029;-79
2021/08/27 05:53:29;;;;;;;2.10;1.38;;;14.70;73.40;;;;;;5041625;28;20099;-79
2021/08/27 05:55:54;;;;;;;3.60;1.65;;;14.80;73.30;;;;;;5035870;28;20033;-79
2021/08/27 05:58:21;;;;;;;3.40;1.85;;;14.80;73.00;;;;;;5035887;28;20492;-80
2021/08/27 06:00:47;;;;;;;2.08;1.40;;;14.90;72.70;;;;;;5042705;28;20025;-79
2021/08/27 06:03:13;;;;;;;3.17;1.50;;;14.90;72.70;;;;;;5055482;28;20025;-79
2021/08/27 06:05:38;;;;;;;2.13;1.27;;;15.00;72.70;;;;;;5049196;28;20396;-79
2021/08/27 06:08:05;;;;;;;1.80;1.35;;;15.10;72.50;;;;;;5035689;28;20112;-78
2021/08/27 06:10:30;;;;;;;2.97;1.67;;;15.10;72.50;;;;;;5053919;28;20025;-79
2021/08/27 06:12:56;;;;;;;2.17;1.10;;;15.20;72.30;;;;;;5055568;28;20055;-79
2021/08/27 06:15:22;;;;;;;4.10;1.55;;;15.20;72.30;;;;;;5050935;28;20075;-79
2021/08/27 06:17:48;;;;;;;2.63;1.30;;;15.30;71.80;;;;;;5050664;28;20029;-79
2021/08/27 06:20:14;;;;;;;2.03;1.57;;;15.40;71.90;;;;;;5050564;28;20040;-79
2021/08/27 06:22:39;;;;;;;1.98;1.38;;;15.50;71.90;;;;;;5035454;28;20025;-79
2021/08/27 06:25:06;;;;;;;2.40;1.33;;;15.50;72.00;;;;;;5035319;28;20038;-79
2021/08/27 06:27:32;;;;;;;4.20;1.40;;;15.50;72.50;;;;;;5050686;28;20036;-79
2021/08/27 06:29:59;;;;;;;2.33;1.20;;;15.50;72.10;;;;;;5050880;28;20021;-79
2021/08/27 06:32:25;;;;;;;1.80;1.00;;;15.50;72.00;;;;;;5035351;28;20036;-79
2021/08/27 06:34:51;;;;;;;2.08;1.38;;;15.40;72.90;;;;;;5035100;28;20112;-79
2021/08/27 06:37:17;;;;;;;2.05;1.30;;;15.30;72.90;;;;;;5035119;28;20069;-79
2021/08/27 06:39:43;;;;;;;1.85;1.23;;;15.40;73.10;;;;;;5035127;28;20112;-79
2021/08/27 06:42:08;;;;;;;2.45;1.60;;;15.30;73.30;;;;;;5072353;28;20025;-79
2021/08/27 06:44:34;;;;;;;3.15;1.42;;;15.30;73.60;;;;;;5051833;28;20241;-79
2021/08/27 06:47:00;;;;;;;3.28;1.08;;;15.30;73.40;;;;;;5036190;28;20076;-80
2021/08/27 06:49:25;;;;;;;2.13;1.10;;;15.40;73.70;;;;;;5035222;28;20037;-80
2021/08/27 06:51:51;;;;;;;2.33;1.10;;;15.40;73.50;;;;;;5035044;28;20076;-79
2021/08/27 06:54:17;;;;;;;1.63;1.13;;;15.40;73.40;;;;;;5035058;28;20037;-79
2021/08/27 06:56:42;;;;;;;2.30;1.10;;;15.50;72.90;;;;;;5035127;28;20083;-79
2021/08/27 06:59:08;;;;;;;1.63;1.10;;;15.50;73.20;;;;;;5033553;28;20046;-78
2021/08/27 07:01:34;;;;;;;2.40;1.20;;;15.60;73.10;;;;;;5035016;28;20029;-79
2021/08/27 07:03:59;;;;;;;1.70;1.30;;;15.70;72.80;;;;;;5034851;28;20097;-79
2021/08/27 07:06:25;;;;;;;3.78;1.15;;;15.70;73.30;;;;;;5039069;28;20047;-79
2021/08/27 07:08:51;;;;;;;2.33;1.17;;;15.70;72.70;;;;;;5054889;28;20108;-79
2021/08/27 07:11:17;;;;;;;1.55;1.17;;;15.70;72.90;;;;;;5054134;28;20104;-79
2021/08/27 07:13:44;;;;;;;2.50;1.10;;;15.80;72.70;;;;;;5053130;28;20087;-79
2021/08/27 07:16:10;;;;;;;1.83;1.10;;;15.80;72.20;;;;;;5053522;28;20033;-79
2021/08/27 07:18:36;;;;;;;1.67;1.13;;;15.90;71.60;;;;;;5053376;28;20389;-79
2021/08/27 07:21:02;;;;;;;3.90;1.27;;;16.00;71.60;;;;;;5048127;28;20040;-79
2021/08/27 07:23:27;;;;;;;2.88;1.20;;;16.10;71.40;;;;;;5036267;28;20469;-79
2021/08/27 07:25:53;;;;;;;1.77;1.00;;;16.20;71.20;;;;;;5038832;28;20021;-81
2021/08/27 07:28:19;;;;;;;2.42;1.05;;;16.20;70.50;;;;;;5037249;28;20029;-79
2021/08/27 07:30:45;;;;;;;2.75;1.10;;;16.40;70.20;;;;;;5038527;28;20443;-79
2021/08/27 07:33:10;;;;;;;2.15;0.90;;;16.50;70.30;;;;;;5038262;28;20483;-80
2021/08/27 07:35:36;;;;;;;2.03;1.10;;;16.70;69.70;;;;;;5054109;28;20033;-80
2021/08/27 07:38:02;;;;;;;1.98;0.90;;;17.00;69.40;;;;;;5038393;28;20037;-79
2021/08/27 07:40:28;;;;;;;2.55;1.10;;;17.50;67.50;;;;;;5060396;28;20048;-80
2021/08/27 07:42:53;;;;;;;3.97;1.15;;;17.90;66.00;;;;;;5064127;28;20097;-80
2021/08/27 07:45:19;;;;;;;2.45;0.98;;;18.30;64.50;;;;;;5057157;28;20017;-80
2021/08/27 07:47:46;;;;;;;1.38;0.85;;;18.70;63.50;;;;;;5057188;28;20444;-80
2021/08/27 07:50:13;;;;;;;1.90;1.10;;;18.80;62.90;;;;;;5058214;28;20051;-80
2021/08/27 07:52:39;;;;;;;3.00;1.10;;;19.00;61.70;;;;;;5056860;28;20056;-80
2021/08/27 07:55:07;;;;;;;1.40;0.90;;;20.20;59.50;;;;;;5058207;28;20104;-81
2021/08/27 07:57:33;;;;;;;1.42;0.75;;;23.10;51.00;;;;;;5040052;28;20026;-81
2021/08/27 07:59:59;;;;;;;2.28;0.88;;;25.40;46.80;;;;;;5036743;28;20028;-79
2021/08/27 08:02:25;;;;;;;2.75;1.15;;;27.20;42.20;;;;;;5037921;28;20395;-79
2021/08/27 08:04:51;;;;;;;3.38;1.10;;;28.50;39.40;;;;;;5037709;28;20495;-80
2021/08/27 08:07:16;;;;;;;1.98;1.02;;;29.30;35.80;;;;;;5037949;28;20033;-80
2021/08/27 08:09:42;;;;;;;3.17;1.17;;;30.00;34.40;;;;;;5036717;28;20026;-80
2021/08/27 08:12:08;;;;;;;2.08;0.90;;;30.90;34.40;;;;;;5037866;28;20104;-79
2021/08/27 08:14:34;;;;;;;3.10;1.17;;;31.00;34.00;;;;;;5037681;28;20488;-79
2021/08/27 08:16:59;;;;;;;2.80;1.20;;;31.70;32.80;;;;;;5053024;28;20103;-80
2021/08/27 08:19:25;;;;;;;2.25;0.85;;;31.80;31.90;;;;;;5053163;28;20518;-80
2021/08/27 08:21:51;;;;;;;2.13;1.10;;;32.30;31.90;;;;;;5037486;28;20393;-79
2021/08/27 08:24:17;;;;;;;1.83;0.95;;;32.80;31.10;;;;;;5036118;28;20079;-80
2021/08/27 08:26:42;;;;;;;2.55;1.08;;;32.60;30.00;;;;;;5037433;28;20109;-79
2021/08/27 08:29:08;;;;;;;1.67;0.85;;;31.60;32.90;;;;;;5037725;28;20500;-79
2021/08/27 08:31:34;;;;;;;2.80;1.25;;;32.20;31.40;;;;;;5037340;28;20036;-78
2021/08/27 08:34:00;;;;;;;3.22;1.30;;;32.70;31.30;;;;;;5055253;28;20021;-80
2021/08/27 08:36:26;;;;;;;2.53;0.90;;;32.90;31.10;;;;;;5057347;28;20040;-80
2021/08/27 08:38:52;;;;;;;2.25;1.02;;;33.40;29.70;;;;;;5053536;28;20514;-79
2021/08/27 08:41:20;;;;;;;2.75;1.25;;;33.80;29.10;;;;;;5060374;28;20422;-80
2021/08/27 08:43:47;;;;;;;1.70;0.90;;;33.30;28.50;;;;;;5064363;28;20049;-80
2021/08/27 08:46:14;;;;;;;1.58;0.85;;;32.60;30.70;;;;;;5037301;28;20018;-79
2021/08/27 08:48:43;;;;;;;2.80;1.20;;;31.80;31.20;;;;;;5037081;28;20464;-79
2021/08/27 08:51:10;;;;;;;1.67;0.90;;;32.30;30.40;;;;;;5037184;28;20044;-80
2021/08/27 08:53:40;;;;;;;1.83;1.10;;;32.90;29.60;;;;;;5051334;28;20065;-80
2021/08/27 08:56:09;;;;;;;2.55;1.05;;;33.30;29.00;;;;;;5037081;28;20025;-79
2021/08/27 08:58:34;;;;;;;;;;;33.60;29.30;;;;;;5037433;28;20495;-79
2021/08/27 09:01:00;;;;;;;2.15;1.10;;;33.90;27.90;;;;;;5036938;28;19909;-79
2021/08/27 09:03:26;;;;;;;3.17;1.15;;;34.10;28.10;;;;;;5036739;28;20024;-79
2021/08/27 09:05:52;;;;;;;2.38;1.02;;;34.20;28.60;;;;;;5036725;28;20030;-79
2021/08/27 09:08:52;;;;;;;2.15;0.85;;;33.30;29.20;;;;;;5036763;28;20155;-80
2021/08/27 09:11:24;;;;;;;2.72;1.25;;;33.30;27.70;;;;;;5024822;28;20043;-79
2021/08/27 09:13:55;;;;;;;3.30;1.17;;;33.70;28.20;;;;;;5038114;28;20030;-79
2021/08/27 09:16:27;;;;;;;2.42;0.77;;;33.80;28.40;;;;;;5056431;28;20059;-79
2021/08/27 09:18:53;;;;;;;2.90;1.05;;;32.30;29.50;;;;;;5042833;28;20100;-79
2021/08/27 09:21:31;;;;;;;1.92;0.90;;;32.80;29.30;;;;;;5036529;28;20075;-79
2021/08/27 09:24:15;;;;;;;3.33;1.15;;;32.80;28.30;;;;;;5044917;28;20029;-79
2021/08/27 09:26:43;;;;;;;2.53;1.30;;;33.10;28.70;;;;;;5056382;28;20029;-79
2021/08/27 09:29:09;;;;;;;3.25;1.30;;;32.90;28.20;;;;;;5056429;28;20024;-79
2021/08/27 09:31:37;;;;;;;2.60;1.10;;;33.30;28.30;;;;;;5056454;28;20032;-79
2021/08/27 09:34:04;;;;;;;2.87;1.10;;;33.30;29.60;;;;;;5040061;28;20057;-79
2021/08/27 09:36:30;;;;;;;4.22;1.20;;;33.30;29.10;;;;;;5036203;28;20029;-79
2021/08/27 09:39:14;;;;;;;2.50;1.08;;;33.80;28.30;;;;;;5036224;28;20029;-79
2021/08/27 09:41:56;;;;;;;2.05;1.10;;;33.90;28.20;;;;;;5068492;28;20106;-80
2021/08/27 09:44:23;;;;;;;2.42;1.08;;;34.50;26.30;;;;;;5052499;28;20480;-79
2021/08/27 09:46:48;;;;;;;2.03;0.93;;;33.90;28.40;;;;;;5053932;28;20021;-79
2021/08/27 09:49:35;;;;;;;2.33;1.13;;;32.50;29.20;;;;;;5054772;28;20028;-79
2021/08/27 09:52:03;;;;;;;2.47;1.00;;;32.40;29.50;;;;;;5054685;28;20116;-79
2021/08/27 09:54:38;;;;;;;1.85;1.00;;;32.50;29.20;;;;;;5050824;28;20052;-79
2021/08/27 09:57:06;;;;;;;2.53;1.00;;;32.90;30.00;;;;;;5035983;28;20036;-80
2021/08/27 09:59:39;;;;;;;2.35;1.13;;;33.30;27.50;;;;;;5035977;28;20525;-80
2021/08/27 10:02:10;;;;;;;1.80;1.15;;;33.40;28.10;;;;;;5034614;28;20057;-80
2021/08/27 10:04:54;;;;;;;1.98;0.93;;;33.30;28.00;;;;;;5043892;28;20029;-79
2021/08/27 10:07:40;;;;;;;1.73;0.90;;;33.10;27.20;;;;;;5055939;28;20025;-80
2021/08/27 10:10:08;;;;;;;1.63;0.90;;;32.60;28.30;;;;;;5035665;28;20041;-79
2021/08/27 10:12:35;;;;;;;2.63;0.80;;;31.80;29.10;;;;;;5035575;28;20044;-78
2021/08/27 10:15:03;;;;;;;1.90;0.90;;;30.90;30.20;;;;;;5034312;28;20056;-79
2021/08/27 10:17:29;;;;;;;2.55;0.90;;;30.20;31.70;;;;;;5035344;28;20061;-79
2021/08/27 10:19:55;;;;;;;1.98;0.70;;;29.90;32.30;;;;;;5035614;28;20033;-79
2021/08/27 10:22:21;;;;;;;1.70;0.85;;;29.80;32.20;;;;;;5035404;28;20162;-80
2021/08/27 10:24:49;;;;;;;1.30;0.80;;;29.50;33.30;;;;;;5035302;28;20103;-79
2021/08/27 10:27:15;;;;;;;2.63;1.00;;;29.10;33.10;;;;;;5035454;28;20126;-79
2021/08/27 10:29:55;;;;;;;1.63;0.80;;;28.70;33.70;;;;;;5035231;28;20113;-79
2021/08/27 10:32:39;;;;;;;3.10;1.02;;;28.60;36.00;;;;;;5035396;28;20021;-79
2021/08/27 10:35:06;;;;;;;2.20;0.82;;;28.30;35.20;;;;;;5034982;28;20041;-79
2021/08/27 10:37:48;;;;;;;2.55;1.23;;;28.10;35.40;;;;;;5035381;28;20021;-79
2021/08/27 10:40:39;;;;;;;3.50;0.82;;;27.90;37.10;;;;;;5041190;28;20135;-79
2021/08/27 10:43:06;;;;;;;2.10;0.80;;;28.00;36.50;;;;;;5064612;28;20033;-79
2021/08/27 10:45:45;;;;;;;2.45;1.05;;;28.20;36.10;;;;;;5035255;28;20051;-79
2021/08/27 10:48:15;;;;;;;2.17;1.00;;;28.10;37.00;;;;;;5043384;28;20025;-78
2021/08/27 10:50:46;;;;;;;2.92;1.05;;;28.20;36.40;;;;;;5055170;28;20029;-79
2021/08/27 10:53:32;;;;;;;1.48;0.70;;;28.10;35.50;;;;;;5054914;28;20108;-79
2021/08/27 10:56:01;;;;;;;2.20;0.93;;;28.10;36.70;;;;;;5042873;28;20409;-79
2021/08/27 10:58:48;;;;;;;2.83;0.73;;;28.10;36.80;;;;;;5038824;28;20047;-79
2021/08/27 11:01:35;;;;;;;2.03;0.90;;;28.00;36.90;;;;;;5038920;28;20038;-79
2021/08/27 11:04:03;;;;;;;1.83;0.80;;;28.00;36.90;;;;;;5039198;28;20025;-79
2021/08/27 11:06:30;;;;;;;1.95;0.80;;;28.00;36.70;;;;;;5039135;28;20754;-79
2021/08/27 11:09:17;;;;;;;1.90;0.70;;;27.80;36.50;;;;;;5045464;28;20055;-78
2021/08/27 11:11:43;;;;;;;2.13;0.90;;;27.50;37.20;;;;;;5058927;28;20159;-78
2021/08/27 11:14:20;;;;;;;2.13;1.00;;;27.40;37.90;;;;;;5055970;28;20044;-79
2021/08/27 11:17:00;;;;;;;1.73;0.90;;;27.20;37.30;;;;;;5038920;28;20030;-79
2021/08/27 11:19:32;;;;;;;2.00;0.93;;;27.10;37.90;;;;;;5038751;28;20033;-79
2021/08/27 11:22:10;;;;;;;1.98;0.80;;;27.10;37.60;;;;;;5039075;28;20117;-79
2021/08/27 11:25:02;;;;;;;2.17;0.75;;;27.10;37.90;;;;;;5038817;28;20025;-79
2021/08/27 11:27:29;;;;;;;3.10;0.95;;;27.00;37.60;;;;;;5038376;28;20026;-79
2021/08/27 11:29:59;;;;;;;2.03;0.90;;;27.20;38.10;;;;;;5038626;28;20036;-79
2021/08/27 11:32:28;;;;;;;1.80;0.82;;;27.00;37.50;;;;;;5038554;28;20024;-81
2021/08/27 11:35:03;;;;;;;2.42;0.60;;;26.90;38.50;;;;;;5038464;28;20029;-81
2021/08/27 11:37:39;;;;;;;1.70;0.75;;;26.80;38.90;;;;;;5038443;28;20022;-80
2021/08/27 11:40:06;;;;;;;3.25;1.65;;;26.90;39.70;;;;;;5041854;28;20142;-81
2021/08/27 11:42:32;;;;;;;1.67;0.75;;;27.00;39.40;;;;;;5076718;28;20437;-81
2021/08/27 11:45:08;;;;;;;3.50;1.30;;;26.90;39.40;;;;;;5047909;28;20029;-81
2021/08/27 11:47:52;;;;;;;2.22;0.95;;;26.70;39.50;;;;;;5038296;28;20021;-81
2021/08/27 11:50:26;;;;;;;2.85;0.98;;;26.60;39.10;;;;;;5038393;28;20025;-81
2021/08/27 11:52:57;;;;;;;2.55;1.08;;;26.60;40.00;;;;;;5048838;28;20056;-81
2021/08/27 11:55:23;;;;;;;1.10;0.55;;;26.70;40.70;;;;;;5058091;28;20032;-81
2021/08/27 11:58:00;;;;;;;1.63;0.68;;;26.80;39.80;;;;;;5057345;28;20017;-81
2021/08/27 12:00:40;;;;;;;2.58;1.00;;;26.70;40.40;;;;;;5037991;28;20112;-81
2021/08/27 12:03:06;;;;;;;;;;;26.60;40.40;;;;;;5037252;28;20035;-81
2021/08/27 12:05:32;;;;;;;2.17;0.80;;;26.30;40.30;;;;;;5037776;28;19966;-81
2021/08/27 12:08:01;;;;;;;2.45;0.85;;;26.10;40.70;;;;;;5038037;28;20025;-80
2021/08/27 12:10:29;;;;;;;1.48;0.77;;;25.90;40.80;;;;;;5045462;28;20021;-81
2021/08/27 12:12:56;;;;;;;2.40;0.70;;;26.00;41.00;;;;;;5057686;28;20395;-81
2021/08/27 12:15:27;;;;;;;2.28;0.90;;;26.00;40.50;;;;;;5045485;28;20064;-81
2021/08/27 12:17:58;;;;;;;1.70;0.90;;;25.90;40.70;;;;;;5037773;28;20032;-81
2021/08/27 12:20:30;;;;;;;1.38;0.75;;;26.00;41.20;;;;;;5036233;28;20018;-81
2021/08/27 12:23:01;;;;;;;2.42;1.00;;;25.90;42.10;;;;;;5037720;28;20025;-81
2021/08/27 12:25:31;;;;;;;2.08;0.90;;;26.00;41.90;;;;;;5037730;28;20022;-81
2021/08/27 12:27:57;;;;;;;2.28;0.80;;;26.10;41.50;;;;;;5037694;28;20033;-81
2021/08/27 12:30:25;;;;;;;1.73;1.00;;;26.30;41.00;;;;;;5047674;28;20029;-81
2021/08/27 12:32:52;;;;;;;1.73;0.75;;;26.50;41.30;;;;;;5046155;28;20022;-81
2021/08/27 12:35:27;;;;;;;2.83;1.05;;;26.30;40.80;;;;;;5036069;28;20022;-81
2021/08/27 12:37:54;;;;;;;2.13;1.00;;;26.30;41.50;;;;;;5037506;28;20037;-81
2021/08/27 12:40:22;;;;;;;2.30;0.90;;;26.40;40.90;;;;;;5044798;28;20503;-81
2021/08/27 12:43:22;;;;;;;1.58;0.77;;;26.30;40.50;;;;;;5070764;28;20571;-81
2021/08/27 12:45:52;;;;;;;;;;;26.40;40.70;;;;;;5033825;28;20041;-81
2021/08/27 12:48:23;;;;;;;2.78;0.90;;;26.40;40.00;;;;;;5037106;28;20347;-81
2021/08/27 12:50:51;;;;;;;1.88;0.90;;;26.30;40.60;;;;;;5052892;28;20568;-82
2021/08/27 12:53:25;;;;;;;2.08;0.80;;;26.20;40.30;;;;;;5057151;28;20029;-81
2021/08/27 12:56:04;;;;;;;2.03;0.82;;;26.10;40.30;;;;;;5051392;28;20035;-81
2021/08/27 12:58:31;;;;;;;2.05;0.95;;;26.60;40.40;;;;;;5036955;28;20036;-81